AFR38M LFPG-EDDF
Flight info
| Callsign | AFR38M |
|---|---|
| Flight time | N/A |
| Altitude | 23000 |
| Route | RANUX DCT VALEK DCT LIPNI UN858 LIMGO Z111 RAMOB IMCOM1D |
| Aircraft | B38M/M-SDE1FGHILORVWXY/HB1 |
Departure
| Time | 2026-05-08 20:49 |
|---|---|
| Airport | Charles de Gaulle International Airport (LFPG) |
Arrival
| Time | N/A |
|---|---|
| Airport | Frankfurt Main Airport (EDDF) |
| Time | Latitude | Longitude | Altitude | Speed | Heading |
|---|---|---|---|---|---|
| 2026-05-08 20:12 | 49.00158 | 2.57821 | 344 ft | 0 kts | 355° |
| 2026-05-08 20:26 | 49.00149 | 2.57822 | 344 ft | 1 kts | 356° |
| 2026-05-08 20:26 | 49.00137 | 2.57823 | 343 ft | 2 kts | 356° |
| 2026-05-08 20:26 | 49.00124 | 2.57825 | 343 ft | 2 kts | 356° |
| 2026-05-08 20:26 | 49.00108 | 2.57827 | 343 ft | 2 kts | 356° |
| 2026-05-08 20:27 | 49.00093 | 2.57829 | 342 ft | 2 kts | 356° |
| 2026-05-08 20:27 | 49.00079 | 2.57826 | 342 ft | 2 kts | 30° |
| 2026-05-08 20:27 | 49.00068 | 2.57811 | 342 ft | 2 kts | 62° |
| 2026-05-08 20:27 | 49.00064 | 2.57796 | 342 ft | 1 kts | 85° |
| 2026-05-08 20:28 | 49.00064 | 2.57786 | 343 ft | 0 kts | 86° |
| 2026-05-08 20:30 | 49.00063 | 2.57788 | 342 ft | 0 kts | 97° |
| 2026-05-08 20:30 | 49.00063 | 2.57796 | 342 ft | 5 kts | 89° |
| 2026-05-08 20:31 | 49.00077 | 2.57996 | 339 ft | 29 kts | 83° |
| 2026-05-08 20:31 | 49.00090 | 2.58286 | 335 ft | 21 kts | 100° |
| 2026-05-08 20:31 | 49.00079 | 2.58308 | 334 ft | 0 kts | 162° |
| 2026-05-08 20:32 | 49.00077 | 2.58308 | 334 ft | 1 kts | 162° |
| 2026-05-08 20:33 | 49.00021 | 2.58291 | 332 ft | 10 kts | 236° |
| 2026-05-08 20:33 | 49.00006 | 2.58189 | 334 ft | 10 kts | 264° |
| 2026-05-08 20:33 | 48.99995 | 2.58004 | 337 ft | 25 kts | 265° |
| 2026-05-08 20:33 | 48.99979 | 2.57688 | 343 ft | 36 kts | 265° |
| 2026-05-08 20:34 | 48.99959 | 2.57296 | 353 ft | 34 kts | 266° |
| 2026-05-08 20:34 | 48.99941 | 2.56971 | 352 ft | 29 kts | 266° |
| 2026-05-08 20:34 | 48.99908 | 2.56356 | 341 ft | 29 kts | 265° |
| 2026-05-08 20:35 | 48.99889 | 2.56046 | 335 ft | 29 kts | 264° |
| 2026-05-08 20:35 | 48.99929 | 2.55743 | 329 ft | 27 kts | 297° |
| 2026-05-08 20:35 | 49.00039 | 2.55649 | 328 ft | 11 kts | 336° |
| 2026-05-08 20:35 | 49.00103 | 2.55623 | 330 ft | 10 kts | 343° |
| 2026-05-08 20:36 | 49.00245 | 2.55559 | 331 ft | 26 kts | 343° |
| 2026-05-08 20:36 | 49.00412 | 2.55490 | 332 ft | 24 kts | 346° |
| 2026-05-08 20:36 | 49.00568 | 2.55420 | 335 ft | 24 kts | 344° |
| 2026-05-08 20:36 | 49.00744 | 2.55343 | 339 ft | 25 kts | 343° |
| 2026-05-08 20:37 | 49.00900 | 2.55273 | 343 ft | 21 kts | 344° |
| 2026-05-08 20:37 | 49.00951 | 2.55251 | 345 ft | 0 kts | 344° |
| 2026-05-08 20:38 | 49.00973 | 2.55241 | 346 ft | 9 kts | 344° |
| 2026-05-08 20:39 | 49.01078 | 2.55195 | 350 ft | 22 kts | 345° |
| 2026-05-08 20:39 | 49.01266 | 2.55198 | 355 ft | 30 kts | 16° |
| 2026-05-08 20:39 | 49.01447 | 2.55177 | 361 ft | 23 kts | 351° |
| 2026-05-08 20:39 | 49.01603 | 2.55158 | 365 ft | 25 kts | 358° |
| 2026-05-08 20:40 | 49.01813 | 2.55133 | 369 ft | 31 kts | 349° |
| 2026-05-08 20:40 | 49.01848 | 2.54946 | 370 ft | 16 kts | 273° |
| 2026-05-08 20:40 | 49.01841 | 2.54747 | 368 ft | 25 kts | 266° |
| 2026-05-08 20:40 | 49.01826 | 2.54451 | 366 ft | 28 kts | 265° |
| 2026-05-08 20:41 | 49.01812 | 2.54157 | 366 ft | 27 kts | 264° |
| 2026-05-08 20:41 | 49.01792 | 2.53859 | 363 ft | 30 kts | 265° |
| 2026-05-08 20:41 | 49.01776 | 2.53537 | 362 ft | 29 kts | 266° |
| 2026-05-08 20:41 | 49.01759 | 2.53233 | 365 ft | 29 kts | 265° |
| 2026-05-08 20:42 | 49.01743 | 2.52937 | 366 ft | 27 kts | 264° |
| 2026-05-08 20:42 | 49.01725 | 2.52673 | 368 ft | 23 kts | 266° |
| 2026-05-08 20:42 | 49.01714 | 2.52429 | 371 ft | 20 kts | 271° |
| 2026-05-08 20:42 | 49.01801 | 2.52364 | 372 ft | 13 kts | 355° |
| 2026-05-08 20:43 | 49.01884 | 2.52299 | 373 ft | 19 kts | 281° |
| 2026-05-08 20:43 | 49.01923 | 2.52123 | 371 ft | 16 kts | 339° |
| 2026-05-08 20:43 | 49.01951 | 2.52117 | 372 ft | 0 kts | 355° |
| 2026-05-08 20:47 | 49.01986 | 2.52112 | 373 ft | 15 kts | 355° |
| 2026-05-08 20:47 | 49.02110 | 2.52196 | 373 ft | 14 kts | 82° |
| 2026-05-08 20:47 | 49.02112 | 2.52241 | 373 ft | 0 kts | 86° |
| 2026-05-08 20:48 | 49.02118 | 2.52351 | 373 ft | 27 kts | 85° |
| 2026-05-08 20:48 | 49.02155 | 2.53009 | 376 ft | 95 kts | 84° |
| 2026-05-08 20:48 | 49.02224 | 2.54323 | 376 ft | 148 kts | 84° |
| 2026-05-08 20:48 | 49.02329 | 2.56011 | 646 ft | 168 kts | 84° |
| 2026-05-08 20:49 | 49.02425 | 2.57771 | 1302 ft | 170 kts | 83° |
| 2026-05-08 20:49 | 49.02504 | 2.59515 | 2091 ft | 163 kts | 87° |
| 2026-05-08 20:49 | 49.02567 | 2.61282 | 2512 ft | 174 kts | 85° |
| 2026-05-08 20:49 | 49.02671 | 2.63216 | 2804 ft | 195 kts | 86° |
| 2026-05-08 20:50 | 49.02760 | 2.65356 | 3203 ft | 211 kts | 86° |
| 2026-05-08 20:50 | 49.02893 | 2.67620 | 3769 ft | 219 kts | 85° |
| 2026-05-08 20:50 | 49.03022 | 2.70033 | 3985 ft | 244 kts | 85° |
| 2026-05-08 20:50 | 49.03146 | 2.72666 | 4519 ft | 255 kts | 86° |
| 2026-05-08 20:51 | 49.03194 | 2.75436 | 5023 ft | 268 kts | 90° |
| 2026-05-08 20:51 | 49.03215 | 2.78296 | 5669 ft | 272 kts | 88° |
| 2026-05-08 20:51 | 49.03357 | 2.81136 | 6329 ft | 273 kts | 82° |
| 2026-05-08 20:51 | 49.03612 | 2.83982 | 7199 ft | 274 kts | 82° |
| 2026-05-08 20:52 | 49.03842 | 2.86852 | 8091 ft | 280 kts | 84° |
| 2026-05-08 20:52 | 49.04023 | 2.89804 | 9002 ft | 284 kts | 86° |
| 2026-05-08 20:52 | 49.04176 | 2.92842 | 9747 ft | 294 kts | 87° |
| 2026-05-08 20:52 | 49.04344 | 2.95926 | 10039 ft | 297 kts | 85° |
| 2026-05-08 20:53 | 49.04572 | 2.99071 | 10056 ft | 296 kts | 84° |
| 2026-05-08 20:53 | 49.04821 | 3.02189 | 10067 ft | 296 kts | 84° |
| 2026-05-08 20:53 | 49.05066 | 3.05293 | 10073 ft | 295 kts | 84° |
| 2026-05-08 20:53 | 49.05303 | 3.08391 | 10070 ft | 296 kts | 84° |
| 2026-05-08 20:54 | 49.05533 | 3.11471 | 10070 ft | 296 kts | 84° |
| 2026-05-08 20:54 | 49.05762 | 3.14615 | 10080 ft | 296 kts | 85° |
| 2026-05-08 20:54 | 49.05984 | 3.17677 | 10342 ft | 295 kts | 85° |
| 2026-05-08 20:54 | 49.06210 | 3.20812 | 11030 ft | 298 kts | 84° |
| 2026-05-08 20:55 | 49.06434 | 3.23930 | 11869 ft | 300 kts | 84° |
| 2026-05-08 20:55 | 49.06663 | 3.27128 | 12406 ft | 313 kts | 84° |
| 2026-05-08 20:55 | 49.06908 | 3.30553 | 12676 ft | 335 kts | 84° |
| 2026-05-08 20:55 | 49.07164 | 3.34123 | 12925 ft | 355 kts | 84° |
| 2026-05-08 20:56 | 49.07440 | 3.37969 | 13180 ft | 373 kts | 84° |
| 2026-05-08 20:56 | 49.07727 | 3.41990 | 13428 ft | 390 kts | 84° |
| 2026-05-08 20:56 | 49.08024 | 3.46168 | 13886 ft | 399 kts | 84° |
| 2026-05-08 20:56 | 49.08321 | 3.50362 | 14503 ft | 403 kts | 84° |
| 2026-05-08 20:57 | 49.08622 | 3.54629 | 15134 ft | 406 kts | 84° |
| 2026-05-08 20:57 | 49.08911 | 3.58870 | 15763 ft | 409 kts | 84° |
| 2026-05-08 20:57 | 49.09195 | 3.63207 | 16307 ft | 414 kts | 84° |
| 2026-05-08 20:57 | 49.09476 | 3.67579 | 16819 ft | 419 kts | 85° |
| 2026-05-08 20:58 | 49.09761 | 3.71999 | 17335 ft | 424 kts | 85° |
| 2026-05-08 20:58 | 49.10054 | 3.76486 | 18122 ft | 421 kts | 85° |
| 2026-05-08 20:58 | 49.10339 | 3.80851 | 18986 ft | 414 kts | 84° |
| 2026-05-08 20:58 | 49.10621 | 3.85129 | 19834 ft | 407 kts | 84° |
| 2026-05-08 20:59 | 49.10899 | 3.89392 | 20671 ft | 399 kts | 83° |
| 2026-05-08 20:59 | 49.11166 | 3.93518 | 21509 ft | 391 kts | 82° |
| 2026-05-08 20:59 | 49.11429 | 3.97586 | 22350 ft | 382 kts | 82° |
| 2026-05-08 20:59 | 49.11721 | 4.01534 | 22861 ft | 381 kts | 77° |
| 2026-05-08 21:00 | 49.12363 | 4.05464 | 23041 ft | 386 kts | 68° |
| 2026-05-08 21:00 | 49.13269 | 4.09399 | 23068 ft | 398 kts | 68° |
| 2026-05-08 21:00 | 49.14162 | 4.13464 | 23093 ft | 410 kts | 69° |
| 2026-05-08 21:00 | 49.15039 | 4.17629 | 23070 ft | 422 kts | 69° |
| 2026-05-08 21:01 | 49.15937 | 4.21941 | 23079 ft | 433 kts | 69° |
| 2026-05-08 21:01 | 49.16859 | 4.26368 | 23088 ft | 443 kts | 69° |
| 2026-05-08 21:01 | 49.17828 | 4.30892 | 23076 ft | 453 kts | 69° |
| 2026-05-08 21:01 | 49.18834 | 4.35471 | 23088 ft | 463 kts | 69° |
| 2026-05-08 21:02 | 49.19883 | 4.40176 | 23092 ft | 471 kts | 68° |
| 2026-05-08 21:02 | 49.20935 | 4.44857 | 23089 ft | 471 kts | 68° |
| 2026-05-08 21:02 | 49.22002 | 4.49573 | 23091 ft | 469 kts | 68° |
| 2026-05-08 21:02 | 49.23066 | 4.54276 | 23089 ft | 470 kts | 68° |
| 2026-05-08 21:03 | 49.24131 | 4.58973 | 23089 ft | 471 kts | 68° |
| 2026-05-08 21:03 | 49.25207 | 4.63707 | 23091 ft | 464 kts | 68° |
| 2026-05-08 21:03 | 49.26257 | 4.68321 | 23094 ft | 461 kts | 69° |
| 2026-05-08 21:03 | 49.27309 | 4.72931 | 23108 ft | 462 kts | 69° |
| 2026-05-08 21:04 | 49.28373 | 4.77589 | 23100 ft | 462 kts | 69° |
| 2026-05-08 21:04 | 49.29424 | 4.82172 | 23097 ft | 462 kts | 69° |
| 2026-05-08 21:04 | 49.30489 | 4.86814 | 23098 ft | 461 kts | 69° |
| 2026-05-08 21:04 | 49.31554 | 4.91432 | 23096 ft | 461 kts | 69° |
| 2026-05-08 21:05 | 49.32616 | 4.96032 | 23098 ft | 462 kts | 69° |
| 2026-05-08 21:05 | 49.33682 | 5.00641 | 23103 ft | 461 kts | 69° |
| 2026-05-08 21:05 | 49.34764 | 5.05305 | 23102 ft | 462 kts | 69° |
| 2026-05-08 21:05 | 49.35842 | 5.09943 | 23096 ft | 463 kts | 69° |
| 2026-05-08 21:06 | 49.36913 | 5.14534 | 23102 ft | 463 kts | 69° |
| 2026-05-08 21:06 | 49.38003 | 5.19197 | 23109 ft | 463 kts | 69° |
| 2026-05-08 21:06 | 49.39095 | 5.23867 | 23092 ft | 464 kts | 69° |
| 2026-05-08 21:06 | 49.40174 | 5.28492 | 23095 ft | 463 kts | 69° |
| 2026-05-08 21:07 | 49.41254 | 5.33116 | 23102 ft | 464 kts | 69° |
| 2026-05-08 21:07 | 49.42067 | 5.37939 | 23091 ft | 466 kts | 82° |
| 2026-05-08 21:07 | 49.42173 | 5.42857 | 23106 ft | 462 kts | 88° |
| 2026-05-08 21:07 | 49.42520 | 5.47650 | 23085 ft | 450 kts | 74° |
| 2026-05-08 21:08 | 49.43550 | 5.52100 | 23098 ft | 438 kts | 65° |
| 2026-05-08 21:08 | 49.44761 | 5.56339 | 23095 ft | 425 kts | 64° |
| 2026-05-08 21:08 | 49.45952 | 5.60368 | 23107 ft | 419 kts | 64° |
| 2026-05-08 21:08 | 49.47168 | 5.64487 | 23109 ft | 428 kts | 64° |
| 2026-05-08 21:09 | 49.48405 | 5.68600 | 23093 ft | 424 kts | 64° |
| 2026-05-08 21:09 | 49.49645 | 5.72679 | 23096 ft | 419 kts | 64° |
| 2026-05-08 21:09 | 49.50850 | 5.76763 | 23114 ft | 418 kts | 65° |
| 2026-05-08 21:09 | 49.52022 | 5.80871 | 23109 ft | 429 kts | 66° |
| 2026-05-08 21:10 | 49.53223 | 5.85140 | 23106 ft | 439 kts | 66° |
| 2026-05-08 21:10 | 49.54387 | 5.89523 | 23113 ft | 449 kts | 68° |
| 2026-05-08 21:10 | 49.55499 | 5.93989 | 23115 ft | 458 kts | 69° |
| 2026-05-08 21:10 | 49.56619 | 5.98624 | 23105 ft | 465 kts | 69° |
| 2026-05-08 21:11 | 49.57740 | 6.03308 | 23107 ft | 465 kts | 69° |
| 2026-05-08 21:11 | 49.58845 | 6.07928 | 23106 ft | 464 kts | 69° |
| 2026-05-08 21:11 | 49.59958 | 6.12568 | 23107 ft | 465 kts | 69° |
| 2026-05-08 21:11 | 49.61087 | 6.17256 | 23107 ft | 465 kts | 69° |
| 2026-05-08 21:12 | 49.62206 | 6.21887 | 23114 ft | 464 kts | 69° |
| 2026-05-08 21:12 | 49.63340 | 6.26505 | 23111 ft | 464 kts | 68° |
| 2026-05-08 21:12 | 49.64629 | 6.31095 | 23107 ft | 463 kts | 64° |
| 2026-05-08 21:12 | 49.66046 | 6.35502 | 23110 ft | 464 kts | 62° |
| 2026-05-08 21:13 | 49.67567 | 6.39924 | 23111 ft | 464 kts | 60° |
| 2026-05-08 21:13 | 49.69107 | 6.44274 | 23107 ft | 464 kts | 60° |
| 2026-05-08 21:13 | 49.70666 | 6.48648 | 23117 ft | 464 kts | 60° |
| 2026-05-08 21:13 | 49.72213 | 6.53014 | 23116 ft | 466 kts | 60° |
| 2026-05-08 21:14 | 49.73748 | 6.57372 | 23121 ft | 464 kts | 60° |
| 2026-05-08 21:14 | 49.75289 | 6.61746 | 23113 ft | 464 kts | 59° |
| 2026-05-08 21:14 | 49.77215 | 6.65741 | 23113 ft | 464 kts | 45° |
| 2026-05-08 21:14 | 49.79754 | 6.68764 | 23113 ft | 464 kts | 28° |
| 2026-05-08 21:15 | 49.82738 | 6.70601 | 23123 ft | 462 kts | 14° |
| 2026-05-08 21:15 | 49.85852 | 6.71703 | 23117 ft | 461 kts | 11° |
| 2026-05-08 21:15 | 49.88991 | 6.72588 | 23116 ft | 461 kts | 9° |
| 2026-05-08 21:15 | 49.92159 | 6.73417 | 23010 ft | 463 kts | 9° |
| 2026-05-08 21:16 | 49.95303 | 6.74249 | 22738 ft | 459 kts | 9° |
| 2026-05-08 21:16 | 49.98428 | 6.75112 | 22469 ft | 460 kts | 10° |
| 2026-05-08 21:16 | 50.01556 | 6.76016 | 22202 ft | 463 kts | 11° |
| 2026-05-08 21:16 | 50.04703 | 6.76958 | 21932 ft | 460 kts | 11° |
| 2026-05-08 21:17 | 50.07787 | 6.77907 | 21668 ft | 444 kts | 11° |
| 2026-05-08 21:17 | 50.10764 | 6.78843 | 20851 ft | 441 kts | 11° |
| 2026-05-08 21:17 | 50.13759 | 6.79834 | 19671 ft | 446 kts | 13° |
| 2026-05-08 21:17 | 50.16743 | 6.81238 | 18760 ft | 443 kts | 21° |
| 2026-05-08 21:18 | 50.19399 | 6.83431 | 17968 ft | 439 kts | 35° |
| 2026-05-08 21:18 | 50.21688 | 6.86590 | 17146 ft | 436 kts | 48° |
| 2026-05-08 21:18 | 50.23508 | 6.90275 | 16347 ft | 431 kts | 56° |
| 2026-05-08 21:18 | 50.25030 | 6.94280 | 15554 ft | 427 kts | 64° |
| 2026-05-08 21:19 | 50.26029 | 6.98582 | 14776 ft | 422 kts | 77° |
| 2026-05-08 21:19 | 50.26382 | 7.03024 | 14033 ft | 416 kts | 89° |
| 2026-05-08 21:19 | 50.26239 | 7.07483 | 13649 ft | 409 kts | 96° |
| 2026-05-08 21:19 | 50.25782 | 7.11883 | 13396 ft | 412 kts | 104° |
| 2026-05-08 21:20 | 50.24902 | 7.16102 | 13149 ft | 410 kts | 112° |
| 2026-05-08 21:20 | 50.23768 | 7.20162 | 12908 ft | 408 kts | 115° |
| 2026-05-08 21:20 | 50.22531 | 7.24123 | 12696 ft | 401 kts | 117° |
| 2026-05-08 21:20 | 50.21297 | 7.27952 | 12052 ft | 395 kts | 117° |
| 2026-05-08 21:21 | 50.20077 | 7.31777 | 11369 ft | 392 kts | 116° |
| 2026-05-08 21:21 | 50.18990 | 7.35575 | 11545 ft | 377 kts | 112° |
| 2026-05-08 21:21 | 50.18014 | 7.39311 | 12097 ft | 382 kts | 113° |
| 2026-05-08 21:21 | 50.16890 | 7.43162 | 12126 ft | 392 kts | 117° |
| 2026-05-08 21:22 | 50.15581 | 7.46745 | 12111 ft | 365 kts | 120° |
| 2026-05-08 21:22 | 50.14495 | 7.50252 | 12124 ft | 361 kts | 111° |
| 2026-05-08 21:22 | 50.13654 | 7.53908 | 12128 ft | 361 kts | 108° |
| 2026-05-08 21:22 | 50.12892 | 7.57632 | 12122 ft | 361 kts | 107° |
| 2026-05-08 21:23 | 50.12157 | 7.61341 | 12121 ft | 360 kts | 107° |
| 2026-05-08 21:23 | 50.11251 | 7.64867 | 12112 ft | 342 kts | 123° |
| 2026-05-08 21:23 | 50.09657 | 7.67369 | 12082 ft | 314 kts | 150° |
| 2026-05-08 21:23 | 50.07736 | 7.68800 | 11764 ft | 302 kts | 161° |
| 2026-05-08 21:24 | 50.05801 | 7.69849 | 11391 ft | 294 kts | 163° |
| 2026-05-08 21:24 | 50.03864 | 7.70817 | 11011 ft | 290 kts | 164° |
| 2026-05-08 21:24 | 50.01984 | 7.71747 | 10565 ft | 284 kts | 164° |
| 2026-05-08 21:24 | 50.00114 | 7.72678 | 10059 ft | 281 kts | 164° |
| 2026-05-08 21:25 | 49.98321 | 7.73787 | 9559 ft | 279 kts | 148° |
| 2026-05-08 21:25 | 49.96924 | 7.75824 | 9070 ft | 277 kts | 130° |
| 2026-05-08 21:25 | 49.95683 | 7.78126 | 8576 ft | 274 kts | 134° |
| 2026-05-08 21:25 | 49.94321 | 7.80116 | 8088 ft | 271 kts | 143° |
| 2026-05-08 21:26 | 49.92783 | 7.81761 | 7609 ft | 266 kts | 149° |
| 2026-05-08 21:26 | 49.91216 | 7.83164 | 7131 ft | 257 kts | 152° |
| 2026-05-08 21:26 | 49.89691 | 7.84501 | 6626 ft | 247 kts | 148° |
| 2026-05-08 21:26 | 49.88456 | 7.86170 | 6004 ft | 231 kts | 123° |
| 2026-05-08 21:27 | 49.87976 | 7.88424 | 5454 ft | 213 kts | 93° |
| 2026-05-08 21:27 | 49.88028 | 7.90621 | 5011 ft | 198 kts | 83° |
| 2026-05-08 21:27 | 49.88246 | 7.92642 | 4550 ft | 188 kts | 77° |
| 2026-05-08 21:27 | 49.88565 | 7.94545 | 4158 ft | 183 kts | 74° |
| 2026-05-08 21:28 | 49.88945 | 7.96417 | 3786 ft | 182 kts | 72° |
| 2026-05-08 21:28 | 49.89356 | 7.98262 | 3403 ft | 178 kts | 71° |
| 2026-05-08 21:28 | 49.89767 | 8.00006 | 3043 ft | 168 kts | 70° |
| 2026-05-08 21:28 | 49.90152 | 8.01612 | 2912 ft | 150 kts | 70° |
| 2026-05-08 21:29 | 49.90514 | 8.03095 | 2968 ft | 146 kts | 70° |
| 2026-05-08 21:29 | 49.90876 | 8.04582 | 2983 ft | 146 kts | 70° |
| 2026-05-08 21:29 | 49.91236 | 8.06054 | 2987 ft | 146 kts | 70° |
| 2026-05-08 21:29 | 49.91583 | 8.07468 | 3058 ft | 142 kts | 70° |
| 2026-05-08 21:30 | 49.91940 | 8.08924 | 2994 ft | 142 kts | 70° |
| 2026-05-08 21:30 | 49.92283 | 8.10326 | 2986 ft | 141 kts | 70° |
| 2026-05-08 21:30 | 49.92632 | 8.11752 | 2981 ft | 141 kts | 70° |
| 2026-05-08 21:30 | 49.92990 | 8.13214 | 3003 ft | 152 kts | 70° |
| 2026-05-08 21:31 | 49.93375 | 8.14782 | 2984 ft | 155 kts | 70° |
| 2026-05-08 21:31 | 49.93761 | 8.16359 | 2987 ft | 157 kts | 70° |
| 2026-05-08 21:31 | 49.94147 | 8.17939 | 2985 ft | 157 kts | 70° |
| 2026-05-08 21:31 | 49.94487 | 8.19329 | 2988 ft | 158 kts | 70° |
| 2026-05-08 21:32 | 49.94904 | 8.21038 | 2989 ft | 179 kts | 70° |
| 2026-05-08 21:32 | 49.95356 | 8.22892 | 2994 ft | 187 kts | 70° |
| 2026-05-08 21:32 | 49.95820 | 8.24796 | 2989 ft | 188 kts | 70° |
| 2026-05-08 21:32 | 49.96278 | 8.26676 | 2988 ft | 188 kts | 70° |
| 2026-05-08 21:33 | 49.96743 | 8.28591 | 2985 ft | 187 kts | 70° |
| 2026-05-08 21:33 | 49.97201 | 8.30476 | 2992 ft | 187 kts | 70° |
| 2026-05-08 21:33 | 49.97669 | 8.32395 | 2977 ft | 194 kts | 70° |
| 2026-05-08 21:33 | 49.98145 | 8.34362 | 2927 ft | 194 kts | 70° |
| 2026-05-08 21:34 | 49.98615 | 8.36296 | 2704 ft | 185 kts | 70° |
| 2026-05-08 21:34 | 49.99053 | 8.38101 | 2376 ft | 168 kts | 70° |
| 2026-05-08 21:34 | 49.99434 | 8.39673 | 2197 ft | 147 kts | 70° |
| 2026-05-08 21:34 | 49.99784 | 8.41114 | 1994 ft | 142 kts | 70° |
| 2026-05-08 21:35 | 50.00137 | 8.42526 | 1856 ft | 140 kts | 68° |
| 2026-05-08 21:35 | 50.00505 | 8.43916 | 1660 ft | 140 kts | 69° |
| 2026-05-08 21:35 | 50.00852 | 8.45334 | 1470 ft | 140 kts | 70° |
| 2026-05-08 21:35 | 50.01155 | 8.46775 | 1241 ft | 141 kts | 72° |
| 2026-05-08 21:36 | 50.01480 | 8.48201 | 1054 ft | 140 kts | 68° |
| 2026-05-08 21:36 | 50.01844 | 8.49600 | 907 ft | 141 kts | 68° |
| 2026-05-08 21:36 | 50.02189 | 8.51026 | 710 ft | 141 kts | 68° |
| 2026-05-08 21:36 | 50.02519 | 8.52441 | 519 ft | 143 kts | 68° |
| 2026-05-08 21:37 | 50.02864 | 8.53869 | 338 ft | 137 kts | 68° |
| 2026-05-08 21:37 | 50.03152 | 8.55058 | 332 ft | 87 kts | 68° |